createdAt,value
2022-09-28T00:00:48.885Z,5.57
2022-09-28T00:05:51.060Z,5.27
2022-09-28T00:10:56.984Z,5.13
2022-09-28T00:16:07.810Z,9.40
2022-09-28T00:21:18.461Z,6.53
2022-09-28T00:26:20.570Z,6.43
2022-09-28T00:31:25.329Z,5.27
2022-09-28T00:36:32.280Z,5.77
2022-09-28T00:41:35.876Z,7.00
2022-09-28T00:46:38.046Z,8.23
2022-09-28T00:51:41.341Z,7.73
2022-09-28T00:56:46.784Z,5.73
2022-09-28T01:01:49.569Z,5.70
2022-09-28T01:06:52.166Z,6.37
2022-09-28T01:11:55.362Z,6.20
2022-09-28T01:17:05.346Z,5.97
2022-09-28T01:22:34.999Z,6.23
2022-09-28T01:27:45.232Z,9.80
2022-09-28T01:32:55.418Z,8.60
2022-09-28T01:38:03.422Z,6.20
2022-09-28T01:43:17.323Z,7.50
2022-09-28T01:48:42.857Z,6.70
2022-09-28T01:53:53.960Z,5.10
2022-09-28T01:59:12.940Z,4.53
2022-09-28T02:04:19.153Z,5.90
2022-09-28T02:09:34.307Z,5.90
2022-09-28T02:14:38.581Z,6.47
2022-09-28T02:19:41.545Z,6.13
2022-09-28T02:25:08.087Z,5.07
2022-09-28T02:30:10.904Z,5.33
2022-09-28T02:35:15.008Z,5.27
2022-09-28T02:40:19.566Z,5.83
2022-09-28T02:45:59.516Z,4.80
2022-09-28T02:51:40.199Z,4.67
2022-09-28T02:57:00.150Z,4.95
2022-09-28T03:02:26.180Z,3.73
2022-09-28T03:07:33.704Z,5.13
2022-09-28T03:12:37.358Z,4.33
2022-09-28T03:17:39.919Z,4.20
2022-09-28T03:22:42.385Z,4.50
2022-09-28T03:27:44.825Z,4.50
2022-09-28T03:32:48.812Z,5.30
2022-09-28T03:37:56.428Z,3.63
2022-09-28T03:48:03.351Z,5.50
2022-09-28T03:53:06.224Z,3.90
2022-09-28T03:58:08.384Z,5.17
2022-09-28T04:03:10.649Z,4.37
2022-09-28T04:08:12.890Z,3.17
2022-09-28T04:13:15.418Z,5.60
2022-09-28T04:18:17.735Z,4.17
2022-09-28T04:23:40.879Z,3.67
2022-09-28T04:29:06.573Z,5.60
2022-09-28T04:34:09.634Z,4.87
2022-09-28T04:39:16.274Z,5.53
2022-09-28T04:49:25.856Z,3.73
2022-09-28T04:54:29.662Z,3.93
2022-09-28T04:59:32.204Z,5.17
2022-09-28T05:04:38.080Z,5.37
2022-09-28T05:09:45.969Z,5.93
2022-09-28T05:14:50.019Z,5.47
2022-09-28T05:19:52.276Z,2.93
2022-09-28T05:24:55.197Z,3.03
2022-09-28T05:29:59.521Z,4.80
2022-09-28T05:35:24.733Z,2.73
2022-09-28T05:40:26.883Z,2.90
2022-09-28T05:45:29.815Z,4.97
2022-09-28T05:50:32.230Z,5.20
2022-09-28T05:55:35.609Z,4.07
2022-09-28T06:00:37.743Z,3.43
2022-09-28T06:05:40.580Z,2.90
2022-09-28T06:10:42.915Z,3.63
2022-09-28T06:15:47.019Z,2.73
2022-09-28T06:20:49.904Z,5.23
2022-09-28T06:25:54.527Z,4.33
2022-09-28T06:30:56.903Z,5.67
2022-09-28T06:35:59.956Z,5.43
2022-09-28T06:41:02.270Z,3.30
2022-09-28T06:46:04.752Z,3.00
2022-09-28T06:51:25.417Z,3.00
2022-09-28T06:56:33.230Z,3.00
2022-09-28T07:01:35.699Z,4.43
2022-09-28T07:06:56.437Z,3.27
2022-09-28T07:12:17.035Z,2.83
2022-09-28T07:17:32.475Z,3.60
2022-09-28T07:22:43.135Z,4.63
2022-09-28T07:27:50.720Z,2.23
2022-09-28T07:33:14.731Z,2.17
2022-09-28T07:38:29.539Z,2.80
2022-09-28T07:43:32.841Z,4.03
2022-09-28T07:48:36.991Z,3.13
2022-09-28T07:53:50.581Z,3.77
2022-09-28T07:59:17.892Z,3.73
2022-09-28T08:04:38.513Z,3.23
2022-09-28T08:09:40.854Z,1.90
2022-09-28T08:15:01.351Z,1.63
2022-09-28T08:20:40.557Z,2.80
2022-09-28T08:25:50.722Z,3.70
2022-09-28T08:30:54.551Z,5.03
2022-09-28T08:36:06.236Z,3.47
2022-09-28T08:41:34.175Z,4.37
2022-09-28T08:46:55.856Z,3.03
2022-09-28T08:52:14.650Z,2.43
2022-09-28T08:57:34.679Z,2.67
2022-09-28T09:02:39.849Z,3.30
2022-09-28T09:07:59.354Z,2.67
2022-09-28T09:13:17.696Z,2.47
2022-09-28T09:18:34.285Z,2.93
2022-09-28T09:23:54.999Z,2.13
2022-09-28T09:29:09.837Z,2.47
2022-09-28T09:34:35.609Z,2.77
2022-09-28T09:40:15.352Z,2.43
2022-09-28T09:46:12.868Z,3.43
2022-09-28T09:52:05.285Z,1.50
2022-09-28T09:57:15.374Z,1.93
2022-09-28T10:02:34.787Z,1.50
2022-09-28T10:07:55.406Z,2.30
2022-09-28T10:12:58.245Z,2.33
2022-09-28T10:18:06.957Z,1.47
2022-09-28T10:23:31.501Z,1.23
2022-09-28T10:28:40.327Z,1.77
2022-09-28T10:33:42.964Z,1.15
2022-09-28T10:38:48.159Z,3.30
2022-09-28T10:44:11.139Z,1.70
2022-09-28T10:49:43.202Z,1.93
2022-09-28T10:54:53.768Z,2.80
2022-09-28T10:59:57.610Z,3.83
2022-09-28T11:05:22.316Z,2.30
2022-09-28T11:10:31.224Z,1.80
2022-09-28T11:15:42.887Z,2.23
2022-09-28T11:20:47.259Z,3.73
2022-09-28T11:26:00.734Z,2.50
2022-09-28T11:31:09.418Z,2.23
2022-09-28T11:36:43.305Z,2.30
2022-09-28T11:41:58.705Z,3.23
2022-09-28T11:47:25.292Z,2.40
2022-09-28T11:52:39.888Z,2.53
2022-09-28T11:57:45.041Z,2.33
2022-09-28T12:03:09.642Z,2.40
2022-09-28T12:08:27.842Z,2.67
2022-09-28T12:13:42.417Z,2.80
2022-09-28T12:19:04.499Z,2.73
2022-09-28T12:24:27.608Z,2.57
2022-09-28T12:29:39.340Z,3.57
2022-09-28T12:34:43.105Z,3.47
2022-09-28T12:39:59.316Z,4.70
2022-09-28T12:46:10.935Z,3.53
2022-09-28T12:51:41.677Z,3.27
2022-09-28T12:57:07.938Z,2.67
2022-09-28T13:02:50.321Z,3.07
2022-09-28T13:08:05.648Z,3.30
2022-09-28T13:13:23.181Z,2.30
2022-09-28T13:18:34.991Z,1.73
2022-09-28T13:23:43.729Z,2.00
2022-09-28T13:28:50.465Z,2.10
2022-09-28T13:33:53.769Z,7.07
2022-09-28T13:38:59.583Z,2.33
2022-09-28T13:44:11.057Z,2.53
2022-09-28T13:49:21.413Z,3.23
2022-09-28T13:54:51.165Z,3.13
2022-09-28T14:00:12.067Z,2.75
2022-09-28T14:05:28.914Z,1.90
2022-09-28T14:11:12.290Z,3.87
2022-09-28T14:16:22.470Z,1.37
2022-09-28T14:22:06.537Z,1.97
2022-09-28T14:27:17.523Z,2.57
2022-09-28T14:32:25.089Z,3.33
2022-09-28T14:37:53.954Z,3.47
2022-09-28T14:43:24.418Z,3.03
2022-09-28T14:48:53.675Z,3.27
2022-09-28T14:54:07.944Z,2.67
2022-09-28T14:59:30.481Z,4.10
2022-09-28T15:04:39.378Z,3.43
2022-09-28T15:09:41.892Z,4.05
2022-09-28T15:15:03.172Z,3.00
2022-09-28T15:20:29.085Z,4.40
2022-09-28T15:25:41.383Z,5.63
2022-09-28T15:30:46.319Z,6.03
2022-09-28T15:36:04.085Z,6.43
2022-09-28T15:41:07.150Z,5.53
2022-09-28T15:46:21.217Z,3.97
2022-09-28T15:51:24.425Z,5.23
2022-09-28T15:56:27.821Z,6.50
2022-09-28T16:01:40.050Z,3.97
2022-09-28T16:06:42.261Z,4.40
2022-09-28T16:11:44.494Z,3.43
2022-09-28T16:16:51.143Z,3.87
2022-09-28T16:21:58.949Z,4.87
2022-09-28T16:27:09.857Z,4.90
2022-09-28T16:32:27.110Z,5.50
2022-09-28T16:37:32.885Z,5.00
2022-09-28T16:42:35.786Z,5.60
2022-09-28T16:47:39.648Z,4.13
2022-09-28T16:53:00.376Z,4.77
2022-09-28T16:58:04.941Z,6.93
2022-09-28T17:03:15.510Z,6.73
2022-09-28T17:08:19.587Z,5.17
2022-09-28T17:13:23.718Z,5.93
2022-09-28T17:18:26.077Z,5.03
2022-09-28T17:23:28.282Z,4.13
2022-09-28T17:28:33.209Z,6.50
2022-09-28T17:33:35.420Z,4.27
2022-09-28T17:38:37.675Z,5.23
2022-09-28T17:43:41.552Z,7.57
2022-09-28T17:48:47.632Z,5.70
2022-09-28T17:53:50.053Z,5.47
2022-09-28T17:58:52.854Z,5.67
2022-09-28T18:03:56.947Z,6.47
2022-09-28T18:08:59.359Z,4.77
2022-09-28T18:14:01.920Z,5.73
2022-09-28T18:19:04.192Z,4.50
2022-09-28T18:24:07.702Z,5.57
2022-09-28T18:29:10.869Z,5.30
2022-09-28T18:34:13.873Z,5.53
2022-09-28T18:39:16.133Z,5.70
2022-09-28T18:44:18.370Z,5.33
2022-09-28T18:49:21.513Z,4.30
2022-09-28T18:54:23.912Z,6.37
2022-09-28T18:59:26.173Z,10.23
2022-09-28T19:04:33.744Z,5.53
2022-09-28T19:09:35.964Z,8.70
2022-09-28T19:14:38.222Z,5.57
2022-09-28T19:19:42.850Z,5.47
2022-09-28T19:24:45.039Z,8.00
2022-09-28T19:29:47.293Z,6.87
2022-09-28T19:34:49.454Z,5.30
2022-09-28T19:39:51.671Z,3.73
2022-09-28T19:44:53.845Z,5.60
2022-09-28T19:49:56.104Z,4.90
2022-09-28T19:54:58.394Z,5.73
2022-09-28T20:00:03.576Z,5.20
2022-09-28T20:05:09.272Z,4.80
2022-09-28T20:10:12.186Z,5.93
2022-09-28T20:15:17.794Z,5.63
2022-09-28T20:20:20.226Z,5.53
2022-09-28T20:25:22.515Z,4.43
2022-09-28T20:30:24.647Z,5.33
2022-09-28T20:35:32.959Z,5.63
2022-09-28T20:40:40.408Z,3.97
2022-09-28T20:45:43.339Z,6.43
2022-09-28T20:50:45.907Z,7.57
2022-09-28T20:55:48.069Z,4.80
2022-09-28T21:00:53.284Z,5.70
2022-09-28T21:05:55.880Z,4.70
2022-09-28T21:10:58.535Z,6.20
2022-09-28T21:16:04.676Z,3.93
2022-09-28T21:21:08.676Z,5.03
2022-09-28T21:26:24.973Z,4.00
2022-09-28T21:31:30.121Z,5.80
2022-09-28T21:36:32.653Z,4.33
2022-09-28T21:41:34.927Z,4.33
2022-09-28T21:46:38.751Z,4.73
2022-09-28T21:51:41.172Z,5.47
2022-09-28T21:56:43.476Z,8.23
2022-09-28T22:01:45.716Z,5.73
2022-09-28T22:06:48.020Z,7.17
2022-09-28T22:11:51.356Z,6.60
2022-09-28T22:16:53.593Z,5.23
2022-09-28T22:21:55.730Z,4.67
2022-09-28T22:26:58.055Z,5.70
2022-09-28T22:32:02.599Z,6.70
2022-09-28T22:37:04.866Z,5.73
2022-09-28T22:42:08.404Z,4.70
2022-09-28T22:47:10.701Z,4.93
2022-09-28T22:52:12.905Z,7.17
2022-09-28T22:57:15.102Z,5.27
2022-09-28T23:02:17.286Z,5.73
2022-09-28T23:07:20.123Z,7.20
2022-09-28T23:12:22.344Z,5.53
2022-09-28T23:17:24.533Z,3.70
2022-09-28T23:22:26.675Z,6.10
2022-09-28T23:27:28.850Z,11.53
2022-09-28T23:32:32.135Z,5.57
2022-09-28T23:37:34.449Z,5.03
2022-09-28T23:42:36.630Z,4.90
2022-09-28T23:47:38.994Z,6.00
2022-09-28T23:52:41.107Z,5.30
2022-09-28T23:57:44.284Z,3.80
